Earlton, Canada
Current Conditions -  °F | °C
As of 8:00 PM on Monday 26 Jan 2015 (Local Time) from CYXR Reporting Station
Broken Clouds Broken Clouds  
Wind Chill: -21°   Ceiling: 22000
Heat Index: -21°   Visibility: 9mi
Dew Point: -24°   Wind: 3mph
Humidity: 77%   Direction: 330°NNW
Pressure: 30.15"   Gusts: NA
Location:  47.71°N, 79.82°W
Report Text: CYXR 270100Z AUTO 33003KT 9SM BKN220 M21/M24 A3015 RMK SLP241
Loading
Personal Weather Stations






























Interactive Weather Map New forecast layout! Learn more

10-Day Weather Forecast

Advertisements
Track Severe Weather on mobile